createdAt,value
2022-11-12T07:40:12.876Z,16.93
2022-11-12T07:42:41.073Z,16.37
2022-11-12T07:45:09.732Z,15.10
2022-11-12T07:47:37.709Z,15.17
2022-11-12T07:50:06.695Z,17.17
2022-11-12T07:52:34.707Z,17.73
2022-11-12T07:55:02.691Z,16.07
2022-11-12T07:57:33.703Z,14.27
2022-11-12T08:00:01.661Z,14.00
2022-11-12T08:02:29.614Z,13.77
2022-11-12T08:04:57.665Z,14.43
2022-11-12T08:07:25.737Z,14.07
2022-11-12T08:09:54.383Z,16.00
2022-11-12T08:12:22.408Z,17.00
2022-11-12T08:14:51.777Z,14.90
2022-11-12T08:17:19.800Z,16.17
2022-11-12T08:19:47.766Z,15.10
2022-11-12T08:22:15.731Z,16.27
2022-11-12T08:24:43.735Z,14.70
2022-11-12T08:27:11.721Z,15.67
2022-11-12T08:29:39.744Z,18.67
2022-11-12T08:32:09.199Z,23.57
2022-11-12T08:34:41.255Z,20.60
2022-11-12T08:37:09.244Z,18.13
2022-11-12T08:39:37.251Z,21.07
2022-11-12T08:42:05.650Z,18.00
2022-11-12T08:44:33.691Z,15.43
2022-11-12T08:47:02.233Z,17.53
2022-11-12T08:49:31.872Z,15.87
2022-11-12T08:51:59.904Z,16.20
2022-11-12T08:54:30.371Z,19.93
2022-11-12T08:56:58.446Z,17.37
2022-11-12T08:59:26.439Z,17.97
2022-11-12T09:01:54.553Z,18.30
2022-11-12T09:04:22.585Z,15.87
2022-11-12T09:06:54.019Z,17.33
2022-11-12T09:09:22.417Z,16.13
2022-11-12T09:11:50.412Z,15.07
2022-11-12T09:14:18.710Z,16.00
2022-11-12T09:16:46.811Z,15.50
2022-11-12T09:19:14.947Z,17.50
2022-11-12T09:21:42.915Z,19.77
2022-11-12T09:24:12.186Z,24.10
2022-11-12T09:26:40.242Z,28.20
2022-11-12T09:29:08.271Z,28.83
2022-11-12T09:31:36.243Z,28.33
2022-11-12T09:34:04.344Z,30.93
2022-11-12T09:36:37.167Z,29.03
2022-11-12T09:39:08.691Z,30.80
2022-11-12T09:41:39.322Z,29.97
2022-11-12T09:44:11.408Z,29.70
2022-11-12T09:46:46.481Z,28.03
2022-11-12T09:49:19.929Z,26.53
2022-11-12T09:51:52.407Z,26.97
2022-11-12T09:54:25.297Z,29.60
2022-11-12T09:56:56.369Z,26.17
2022-11-12T09:59:27.912Z,24.20
2022-11-12T10:02:07.543Z,30.47
2022-11-12T10:04:50.824Z,32.30
2022-11-12T10:07:31.472Z,32.90
2022-11-12T10:10:09.970Z,30.20
2022-11-12T10:12:54.424Z,23.50
2022-11-12T10:15:54.466Z,21.93
2022-11-12T10:18:32.589Z,27.43
2022-11-12T10:21:09.654Z,22.63
2022-11-12T10:23:43.203Z,15.30
2022-11-12T10:26:14.156Z,14.17
2022-11-12T10:28:48.391Z,14.07
2022-11-12T10:31:18.387Z,13.13
2022-11-12T10:33:46.713Z,13.50
2022-11-12T10:36:27.276Z,13.83
2022-11-12T10:38:56.681Z,14.23
2022-11-12T10:41:27.433Z,16.07
2022-11-12T10:43:59.278Z,16.10
2022-11-12T10:46:29.307Z,16.17
2022-11-12T10:49:08.033Z,16.30
2022-11-12T10:51:37.682Z,17.03
2022-11-12T10:54:30.674Z,18.27
2022-11-12T10:57:07.079Z,17.77
2022-11-12T10:59:36.452Z,16.87
2022-11-12T11:02:04.755Z,16.73
2022-11-12T11:04:35.019Z,17.37
2022-11-12T11:07:06.231Z,17.27
2022-11-12T11:09:35.684Z,16.97
2022-11-12T11:12:03.825Z,18.33
2022-11-12T11:14:34.224Z,18.77
2022-11-12T11:17:09.276Z,18.40
2022-11-12T11:19:39.988Z,17.03
2022-11-12T11:22:26.845Z,15.20
2022-11-12T11:25:16.051Z,14.97
2022-11-12T11:27:55.197Z,14.30
2022-11-12T11:30:24.018Z,15.83
2022-11-12T11:33:16.203Z,14.83
2022-11-12T11:35:54.904Z,15.40
2022-11-12T11:38:34.812Z,14.73
2022-11-12T11:41:19.722Z,14.23
2022-11-12T11:43:59.826Z,14.30
2022-11-12T11:46:46.238Z,14.43
2022-11-12T11:49:44.286Z,15.47
2022-11-12T11:52:27.197Z,13.97
2022-11-12T11:55:07.753Z,13.17
2022-11-12T11:57:44.303Z,13.63
2022-11-12T12:00:17.852Z,14.33
2022-11-12T12:03:10.839Z,14.03
2022-11-12T12:05:45.098Z,14.70
2022-11-12T12:08:20.213Z,13.70
2022-11-12T12:11:11.241Z,13.93
2022-11-12T12:13:52.455Z,15.20
2022-11-12T12:16:41.439Z,15.70
2022-11-12T12:19:22.301Z,15.37
2022-11-12T12:21:53.404Z,14.10
2022-11-12T12:24:26.832Z,16.00
2022-11-12T12:26:58.436Z,15.83
2022-11-12T12:29:32.505Z,16.13
2022-11-12T12:32:06.058Z,21.13
2022-11-12T12:34:36.731Z,19.23
2022-11-12T12:37:12.331Z,15.67
2022-11-12T12:39:48.232Z,15.63
2022-11-12T12:42:21.738Z,16.90
2022-11-12T12:45:01.280Z,17.33
2022-11-12T12:47:32.086Z,16.60
2022-11-12T12:50:04.419Z,17.50
2022-11-12T12:53:03.325Z,17.83
2022-11-12T12:55:40.945Z,17.70
2022-11-12T12:58:19.229Z,17.60
2022-11-12T13:00:54.900Z,18.10
2022-11-12T13:03:49.821Z,19.03
2022-11-12T13:06:28.717Z,19.43
2022-11-12T13:09:03.191Z,19.00
2022-11-12T13:12:12.523Z,20.13
2022-11-12T13:14:53.256Z,20.63
2022-11-12T13:17:47.755Z,22.37
2022-11-12T13:20:36.769Z,20.97
2022-11-12T13:23:09.758Z,20.97
2022-11-12T13:25:40.063Z,21.70
2022-11-12T13:28:13.133Z,22.60
2022-11-12T13:31:04.720Z,23.10
2022-11-12T13:33:34.713Z,23.17
2022-11-12T13:36:27.099Z,22.80
2022-11-12T13:39:00.613Z,26.07
2022-11-12T13:41:51.860Z,34.60
2022-11-12T13:44:20.101Z,37.73
2022-11-12T13:46:51.179Z,39.83
2022-11-12T13:49:19.372Z,39.47
2022-11-12T13:51:51.972Z,42.07
2022-11-12T13:54:34.332Z,42.57
2022-11-12T13:57:27.010Z,41.03
2022-11-12T14:00:20.874Z,41.00
2022-11-12T14:02:53.224Z,35.67
2022-11-12T14:05:24.377Z,34.93
2022-11-12T14:08:16.562Z,42.80
2022-11-12T14:10:54.683Z,38.57
2022-11-12T14:13:40.146Z,33.60
2022-11-12T14:16:24.913Z,28.47
2022-11-12T14:19:09.777Z,26.07
2022-11-12T14:21:37.853Z,24.87
2022-11-12T14:24:06.229Z,23.33
2022-11-12T14:26:39.048Z,24.23
2022-11-12T14:29:08.646Z,24.93
2022-11-12T14:31:36.584Z,24.37
2022-11-12T14:34:23.782Z,26.83
2022-11-12T14:36:55.798Z,25.23
2022-11-12T14:39:24.529Z,23.80
2022-11-12T14:41:53.484Z,24.90
2022-11-12T14:44:28.480Z,25.33
2022-11-12T14:46:58.758Z,25.93
2022-11-12T14:49:33.806Z,28.33
2022-11-12T14:52:08.400Z,26.90
2022-11-12T14:54:41.159Z,27.70
2022-11-12T14:57:18.928Z,26.93
2022-11-12T14:59:48.364Z,27.20
2022-11-12T15:02:34.278Z,28.67
2022-11-12T15:05:14.901Z,28.63
2022-11-12T15:13:20.462Z,28.73
